Time;durP1;ratioP1;P1;durP2;ratioP2;P2;SDS_P1;SDS_P2;PMS_P1;PMS_P2;Temp;Humidity;BMP_temperature;BMP_pressure;BME280_temperature;BME280_humidity;BME280_pressure;Samples;Min_cycle;Max_cycle;Signal;HPM_P1;HPM_P2
2023/06/20 00:02:00;;;;;;;6.88;4.00;;;24.40;56.60;;;;;;5074206;28;20124;-63
2023/06/20 00:04:25;;;;;;;7.55;4.45;;;24.40;56.60;;;;;;5073292;28;20060;-63
2023/06/20 00:06:51;;;;;;;7.28;3.90;;;24.40;56.60;;;;;;5074391;28;20498;-63
2023/06/20 00:09:16;;;;;;;6.90;4.05;;;24.40;56.60;;;;;;5074049;28;20559;-63
2023/06/20 00:11:42;;;;;;;4.95;3.65;;;24.40;56.60;;;;;;5073664;28;20488;-63
2023/06/20 00:14:12;;;;;;;7.20;4.50;;;24.40;56.70;;;;;;5073924;28;20086;-63
2023/06/20 00:16:38;;;;;;;6.57;4.00;;;24.40;56.70;;;;;;5074044;28;20090;-63
2023/06/20 00:19:03;;;;;;;5.80;3.80;;;24.40;56.70;;;;;;5073184;28;20091;-63
2023/06/20 00:21:29;;;;;;;6.95;3.95;;;24.40;56.70;;;;;;5074345;28;20076;-63
2023/06/20 00:23:54;;;;;;;5.53;4.00;;;24.40;56.70;;;;;;5073303;28;20096;-63
2023/06/20 00:26:21;;;;;;;6.43;4.00;;;24.40;56.70;;;;;;5073589;28;20121;-63
2023/06/20 00:28:47;;;;;;;7.90;4.63;;;24.40;56.70;;;;;;5072491;28;20470;-63
2023/06/20 00:31:12;;;;;;;5.80;4.10;;;24.40;56.70;;;;;;5072663;28;20146;-62
2023/06/20 00:33:38;;;;;;;6.40;3.78;;;24.40;56.80;;;;;;5074124;28;20392;-63
2023/06/20 00:36:03;;;;;;;5.88;3.78;;;24.40;56.80;;;;;;5073693;28;20036;-63
2023/06/20 00:38:29;;;;;;;5.45;3.53;;;24.40;56.90;;;;;;5072116;28;20067;-62
2023/06/20 00:40:55;;;;;;;6.53;4.30;;;24.40;56.90;;;;;;5073627;28;20400;-63
2023/06/20 00:43:21;;;;;;;6.45;3.53;;;24.40;56.90;;;;;;5072146;28;20044;-63
2023/06/20 00:45:46;;;;;;;6.00;3.47;;;24.40;56.90;;;;;;5071310;28;20037;-63
2023/06/20 00:48:12;;;;;;;6.45;4.10;;;24.30;56.80;;;;;;5072324;28;20082;-62
2023/06/20 00:50:37;;;;;;;5.45;3.75;;;24.40;57.60;;;;;;5073479;28;20550;-63
2023/06/20 00:53:05;;;;;;;5.82;3.97;;;24.30;56.90;;;;;;5071288;28;20045;-63
2023/06/20 00:55:32;;;;;;;5.70;3.95;;;24.40;56.90;;;;;;5073366;28;20457;-63
2023/06/20 00:57:59;;;;;;;6.20;3.90;;;24.40;57.00;;;;;;5073165;28;20545;-63
2023/06/20 01:00:25;;;;;;;5.72;3.45;;;24.40;57.00;;;;;;5072429;28;20045;-64
2023/06/20 01:02:52;;;;;;;4.95;3.72;;;24.40;57.00;;;;;;5072162;28;20052;-63
2023/06/20 01:05:18;;;;;;;5.57;4.00;;;24.30;57.00;;;;;;5073159;28;20033;-63
2023/06/20 01:07:57;;;;;;;6.10;4.00;;;24.30;57.00;;;;;;5071344;28;20450;-62
2023/06/20 01:10:37;;;;;;;4.80;3.40;;;24.40;57.10;;;;;;5051391;28;20458;-63
2023/06/20 01:13:19;;;;;;;5.45;4.07;;;24.30;57.00;;;;;;5051269;28;20088;-63
2023/06/20 01:15:51;;;;;;;5.05;3.72;;;24.30;57.00;;;;;;5064075;28;20037;-63
2023/06/20 01:18:26;;;;;;;4.88;3.60;;;24.30;57.00;;;;;;5071797;28;20123;-63
2023/06/20 01:20:54;;;;;;;5.82;3.63;;;24.30;57.10;;;;;;5070756;28;20123;-63
2023/06/20 01:23:23;;;;;;;5.70;3.65;;;24.30;57.10;;;;;;5066775;28;20082;-63
2023/06/20 01:25:51;;;;;;;4.93;3.70;;;24.30;57.10;;;;;;5067904;28;20140;-63
2023/06/20 01:28:46;;;;;;;5.80;3.60;;;24.30;57.10;;;;;;5071710;28;20110;-63
2023/06/20 01:31:16;;;;;;;6.20;3.75;;;24.30;57.20;;;;;;5078910;28;20048;-63
2023/06/20 01:34:07;;;;;;;7.40;4.10;;;24.30;57.20;;;;;;5092679;28;20047;-63
2023/06/20 01:36:37;;;;;;;5.65;3.67;;;24.30;57.20;;;;;;5073316;28;20068;-63
2023/06/20 01:39:06;;;;;;;6.30;4.10;;;24.30;57.20;;;;;;5055349;28;20098;-63
2023/06/20 01:41:32;;;;;;;8.45;3.92;;;24.30;57.20;;;;;;5050252;28;20072;-63
2023/06/20 01:43:58;;;;;;;5.18;3.53;;;24.30;57.30;;;;;;5072577;28;20128;-62
2023/06/20 01:46:24;;;;;;;6.40;4.18;;;24.30;57.30;;;;;;5058754;28;20051;-63
2023/06/20 01:48:49;;;;;;;4.90;3.40;;;24.30;57.20;;;;;;5053881;28;20061;-63
2023/06/20 01:51:15;;;;;;;5.13;3.75;;;24.30;57.30;;;;;;5071038;28;20044;-63
2023/06/20 01:53:40;;;;;;;6.55;4.13;;;24.30;57.30;;;;;;5054435;28;20044;-63
2023/06/20 01:56:06;;;;;;;5.05;3.63;;;24.30;57.20;;;;;;5053148;28;20143;-63
2023/06/20 01:58:32;;;;;;;5.82;3.75;;;24.30;57.30;;;;;;5072187;28;20099;-63
2023/06/20 02:00:57;;;;;;;6.32;3.92;;;24.30;57.30;;;;;;5050695;28;20041;-63
2023/06/20 02:03:25;;;;;;;5.80;3.88;;;24.30;57.30;;;;;;5050470;28;20061;-63
2023/06/20 02:05:51;;;;;;;6.03;3.88;;;24.30;57.30;;;;;;5077245;28;20041;-63
2023/06/20 02:08:16;;;;;;;5.50;3.70;;;24.30;57.30;;;;;;5053780;28;20488;-63
2023/06/20 02:10:42;;;;;;;5.88;3.83;;;24.30;57.40;;;;;;5053326;28;20036;-63
2023/06/20 02:13:07;;;;;;;5.38;3.92;;;24.30;57.40;;;;;;5074645;28;20036;-63
2023/06/20 02:15:34;;;;;;;5.90;3.63;;;24.30;57.30;;;;;;5050113;28;20135;-62
2023/06/20 02:18:02;;;;;;;5.55;3.65;;;24.30;57.40;;;;;;5071123;28;20494;-62
2023/06/20 02:20:28;;;;;;;5.72;4.25;;;24.30;57.40;;;;;;5072102;28;20473;-63
2023/06/20 02:22:55;;;;;;;5.20;3.70;;;24.30;57.40;;;;;;5070952;28;20066;-63
2023/06/20 02:25:23;;;;;;;6.45;4.07;;;24.30;57.40;;;;;;5069806;28;20043;-63
2023/06/20 02:27:50;;;;;;;7.22;4.35;;;24.20;57.40;;;;;;5054304;28;20053;-63
2023/06/20 02:30:16;;;;;;;6.90;3.90;;;24.30;57.50;;;;;;5033822;28;20083;-63
2023/06/20 02:32:42;;;;;;;5.50;3.80;;;24.30;57.50;;;;;;5051255;28;20045;-63
2023/06/20 02:35:08;;;;;;;5.10;3.72;;;24.30;57.50;;;;;;5069955;28;20053;-63
2023/06/20 02:37:34;;;;;;;5.72;3.80;;;24.30;57.50;;;;;;5071155;28;20496;-63
2023/06/20 02:40:00;;;;;;;5.40;3.75;;;24.30;57.50;;;;;;5068929;28;20036;-63
2023/06/20 02:42:25;;;;;;;5.47;3.97;;;24.20;57.40;;;;;;5053608;28;20048;-62
2023/06/20 02:44:51;;;;;;;4.97;3.63;;;24.20;57.40;;;;;;5070210;28;20044;-63
2023/06/20 02:47:33;;;;;;;6.35;3.90;;;24.20;57.50;;;;;;5071500;28;20051;-63
2023/06/20 02:50:06;;;;;;;5.85;3.88;;;24.20;57.50;;;;;;5054668;28;20049;-63
2023/06/20 02:53:00;;;;;;;5.97;3.90;;;24.20;57.50;;;;;;5071009;28;20442;-63
2023/06/20 02:55:30;;;;;;;6.10;4.30;;;24.20;57.50;;;;;;5070544;28;20072;-63
2023/06/20 02:57:58;;;;;;;5.95;4.25;;;24.20;57.50;;;;;;5070498;28;20589;-62
2023/06/20 03:00:24;;;;;;;5.22;3.90;;;24.20;57.60;;;;;;5070959;28;20037;-63
2023/06/20 03:03:02;;;;;;;4.97;3.63;;;24.20;57.50;;;;;;5070807;28;20052;-63
2023/06/20 03:05:28;;;;;;;5.75;3.92;;;24.20;57.60;;;;;;5038606;28;20043;-63
2023/06/20 03:07:54;;;;;;;5.72;3.92;;;24.20;57.60;;;;;;5069759;28;20123;-63
2023/06/20 03:10:20;;;;;;;5.90;4.07;;;24.20;57.50;;;;;;5053511;28;20497;-63
2023/06/20 03:12:45;;;;;;;6.57;4.32;;;24.20;57.50;;;;;;5053038;28;20048;-63
2023/06/20 03:15:11;;;;;;;5.60;4.15;;;24.20;57.60;;;;;;5053340;28;20043;-63
2023/06/20 03:17:36;;;;;;;5.97;4.03;;;24.20;57.50;;;;;;5071836;28;20045;-63
2023/06/20 03:20:09;;;;;;;6.18;4.13;;;24.20;57.50;;;;;;5070445;28;20412;-63
2023/06/20 03:22:35;;;;;;;5.35;4.03;;;24.20;57.50;;;;;;5070244;28;20070;-63
2023/06/20 03:25:00;;;;;;;5.20;3.72;;;24.20;57.60;;;;;;5071483;28;20045;-63
2023/06/20 03:27:26;;;;;;;4.82;3.83;;;24.20;57.50;;;;;;5070713;28;20159;-62
2023/06/20 03:29:51;;;;;;;5.78;4.47;;;24.20;57.60;;;;;;5070882;28;20048;-63
2023/06/20 03:32:17;;;;;;;5.28;3.72;;;24.20;57.60;;;;;;5069968;28;20056;-63
2023/06/20 03:34:42;;;;;;;5.70;3.70;;;24.20;57.60;;;;;;5074341;28;20048;-62
2023/06/20 03:37:08;;;;;;;5.90;3.90;;;24.20;57.60;;;;;;5074738;28;20120;-63
2023/06/20 03:39:33;;;;;;;5.65;4.00;;;24.20;57.60;;;;;;5075121;28;20094;-63
2023/06/20 03:41:59;;;;;;;5.50;3.90;;;24.20;57.60;;;;;;5073608;28;20049;-63
2023/06/20 03:44:24;;;;;;;6.40;3.95;;;24.20;57.70;;;;;;5075077;28;20102;-63
2023/06/20 03:46:50;;;;;;;5.38;3.78;;;24.20;57.60;;;;;;5074397;28;20098;-63
2023/06/20 03:49:15;;;;;;;6.85;4.70;;;24.20;57.60;;;;;;5073886;28;20985;-63
2023/06/20 03:51:41;;;;;;;6.32;4.20;;;24.20;57.60;;;;;;5073483;28;20584;-62
2023/06/20 03:54:06;;;;;;;4.43;3.40;;;24.20;57.60;;;;;;5074577;28;20504;-63
2023/06/20 03:56:32;;;;;;;5.38;3.70;;;24.20;57.60;;;;;;5073953;28;20392;-63
2023/06/20 03:58:58;;;;;;;5.13;3.70;;;24.20;57.60;;;;;;5074601;28;20492;-63
2023/06/20 04:01:24;;;;;;;5.28;3.85;;;24.20;57.70;;;;;;5074340;28;20110;-63
2023/06/20 04:03:50;;;;;;;5.15;3.80;;;24.20;57.70;;;;;;5071681;28;20215;-63
2023/06/20 04:06:16;;;;;;;5.90;4.03;;;24.20;57.70;;;;;;5073553;28;20098;-63
2023/06/20 04:08:42;;;;;;;6.22;4.20;;;24.10;57.60;;;;;;5074469;28;20048;-63
2023/06/20 04:11:07;;;;;;;6.03;3.70;;;24.20;57.70;;;;;;5073330;28;20048;-62
2023/06/20 04:13:33;;;;;;;5.20;3.63;;;24.10;57.60;;;;;;5072879;28;20092;-63
2023/06/20 04:15:59;;;;;;;5.47;4.10;;;24.10;57.60;;;;;;5071875;28;20072;-63
2023/06/20 04:18:24;;;;;;;5.18;3.70;;;24.10;57.60;;;;;;5072958;28;20045;-63
2023/06/20 04:20:50;;;;;;;6.22;3.90;;;24.20;57.70;;;;;;5074278;28;20052;-63
2023/06/20 04:23:15;;;;;;;5.97;3.72;;;24.20;57.70;;;;;;5073246;28;20045;-63
2023/06/20 04:25:41;;;;;;;5.22;3.80;;;24.20;57.70;;;;;;5073964;28;20037;-63
2023/06/20 04:28:06;;;;;;;5.05;3.90;;;24.20;57.70;;;;;;5072732;28;20518;-63
2023/06/20 04:30:32;;;;;;;5.68;3.90;;;24.20;57.70;;;;;;5073613;28;20083;-63
2023/06/20 04:32:57;;;;;;;6.10;4.63;;;24.20;57.70;;;;;;5072212;28;20066;-63
2023/06/20 04:35:23;;;;;;;6.60;4.32;;;24.10;57.60;;;;;;5073995;28;20037;-63
2023/06/20 04:37:51;;;;;;;5.97;3.90;;;24.10;57.60;;;;;;5072044;28;20051;-63
2023/06/20 04:40:17;;;;;;;5.93;4.03;;;24.10;57.60;;;;;;5072239;28;20060;-63
2023/06/20 04:42:45;;;;;;;4.85;3.53;;;24.10;57.70;;;;;;5072161;28;20049;-63
2023/06/20 04:45:10;;;;;;;6.00;4.38;;;24.10;57.70;;;;;;5070589;28;20070;-63
2023/06/20 04:47:36;;;;;;;5.13;3.80;;;24.10;57.70;;;;;;5073653;28;20487;-63
2023/06/20 04:50:03;;;;;;;5.40;3.90;;;24.10;57.70;;;;;;5073307;28;20043;-63
2023/06/20 04:52:32;;;;;;;5.20;3.88;;;24.10;57.70;;;;;;5071354;28;20128;-63
2023/06/20 04:55:03;;;;;;;5.28;3.65;;;24.10;57.70;;;;;;5081577;28;20079;-63
2023/06/20 04:57:32;;;;;;;5.03;3.80;;;24.10;57.70;;;;;;5079127;28;20481;-63
2023/06/20 04:59:58;;;;;;;5.47;3.97;;;24.10;57.70;;;;;;5072557;28;20091;-63
2023/06/20 05:02:24;;;;;;;5.63;4.10;;;24.10;57.70;;;;;;5071950;28;20080;-63
2023/06/20 05:04:50;;;;;;;5.60;4.10;;;24.10;57.70;;;;;;5073653;28;20044;-63
2023/06/20 05:07:16;;;;;;;6.10;4.07;;;24.10;57.70;;;;;;5072090;28;20033;-63
2023/06/20 05:09:41;;;;;;;5.43;3.85;;;24.10;58.40;;;;;;5073138;28;20048;-62
2023/06/20 05:12:07;;;;;;;6.95;4.05;;;24.10;57.70;;;;;;5071286;28;20044;-62
2023/06/20 05:14:32;;;;;;;5.25;3.80;;;24.10;57.70;;;;;;5071238;28;20068;-63
2023/06/20 05:16:58;;;;;;;5.28;3.80;;;24.10;57.70;;;;;;5072710;28;20056;-63
2023/06/20 05:19:24;;;;;;;5.10;3.75;;;24.10;57.70;;;;;;5072416;28;20041;-63
2023/06/20 05:21:49;;;;;;;5.00;3.90;;;24.10;57.70;;;;;;5071864;28;20056;-63
2023/06/20 05:24:15;;;;;;;6.07;3.65;;;24.10;57.80;;;;;;5072402;28;20055;-63
2023/06/20 05:26:40;;;;;;;5.75;4.03;;;24.10;57.80;;;;;;5067504;28;20040;-63
2023/06/20 05:29:06;;;;;;;5.13;3.83;;;24.10;57.80;;;;;;5063546;28;20248;-63
2023/06/20 05:31:32;;;;;;;5.50;3.75;;;24.10;57.80;;;;;;5057412;28;20083;-63
2023/06/20 05:33:57;;;;;;;5.65;3.60;;;24.10;57.80;;;;;;5071773;28;20040;-63
2023/06/20 05:36:23;;;;;;;6.10;4.07;;;24.10;57.90;;;;;;5072297;28;20080;-63
2023/06/20 05:38:48;;;;;;;5.95;4.15;;;24.10;57.90;;;;;;5072758;28;20040;-62
2023/06/20 05:41:15;;;;;;;5.47;4.03;;;24.10;57.90;;;;;;5071214;28;20504;-63
2023/06/20 05:43:40;;;;;;;6.80;4.15;;;24.10;57.90;;;;;;5072549;28;20169;-63
2023/06/20 05:46:06;;;;;;;5.13;3.97;;;24.10;57.90;;;;;;5072192;28;20565;-63
2023/06/20 05:48:32;;;;;;;5.28;4.03;;;24.10;58.00;;;;;;5071842;28;20040;-63
2023/06/20 05:51:00;;;;;;;5.70;4.45;;;24.10;58.00;;;;;;5071246;28;20044;-63
2023/06/20 05:53:29;;;;;;;5.10;3.80;;;24.10;58.00;;;;;;5071972;28;20633;-62
2023/06/20 05:55:54;;;;;;;8.45;5.05;;;24.10;58.00;;;;;;5085138;28;20078;-66
2023/06/20 05:58:20;;;;;;;11.73;8.10;;;24.00;58.00;;;;;;5073842;28;20040;-65
2023/06/20 06:00:46;;;;;;;13.13;9.40;;;24.00;58.20;;;;;;5072570;28;20040;-66
2023/06/20 06:03:14;;;;;;;11.15;7.50;;;23.90;58.50;;;;;;5071050;28;20045;-65
2023/06/20 06:05:40;;;;;;;15.30;9.13;;;23.90;58.90;;;;;;5091824;28;20047;-66
2023/06/20 06:08:06;;;;;;;13.35;9.30;;;23.90;59.10;;;;;;5076483;28;20048;-66
2023/06/20 06:10:32;;;;;;;12.25;8.68;;;23.70;59.20;;;;;;5071766;28;20040;-66
2023/06/20 06:12:58;;;;;;;17.75;9.60;;;23.70;59.50;;;;;;5071374;28;20506;-66
2023/06/20 06:15:23;;;;;;;13.93;9.23;;;23.70;59.70;;;;;;5072525;28;20036;-65
2023/06/20 06:17:49;;;;;;;12.35;9.25;;;23.60;59.80;;;;;;5071656;28;20067;-65
2023/06/20 06:20:19;;;;;;;13.40;8.90;;;23.60;60.00;;;;;;5068706;28;20095;-65
2023/06/20 06:22:45;;;;;;;14.15;9.60;;;23.50;60.10;;;;;;5069386;28;20488;-64
2023/06/20 06:25:11;;;;;;;13.18;8.40;;;23.50;60.90;;;;;;5070706;28;20649;-65
2023/06/20 06:27:36;;;;;;;11.65;8.32;;;23.50;60.30;;;;;;5071511;28;20092;-64
2023/06/20 06:30:03;;;;;;;10.98;7.65;;;23.50;60.40;;;;;;5071120;28;20086;-63
2023/06/20 06:32:30;;;;;;;13.48;8.82;;;23.50;60.50;;;;;;5072226;28;20480;-64
2023/06/20 06:34:59;;;;;;;13.70;8.13;;;23.60;60.50;;;;;;5072225;28;20077;-63
2023/06/20 06:37:26;;;;;;;14.77;9.18;;;23.60;60.40;;;;;;5071176;28;20047;-64
2023/06/20 06:39:51;;;;;;;11.32;8.18;;;23.60;60.30;;;;;;5071858;28;20089;-62
2023/06/20 06:42:17;;;;;;;11.85;7.75;;;23.70;60.50;;;;;;5070392;28;20048;-61
2023/06/20 06:44:42;;;;;;;11.50;7.75;;;23.70;60.50;;;;;;5071279;28;20181;-64
2023/06/20 06:47:08;;;;;;;14.23;7.85;;;23.70;60.50;;;;;;5071487;28;20047;-65
2023/06/20 06:49:34;;;;;;;12.38;8.00;;;23.70;60.50;;;;;;5070977;28;20052;-64
2023/06/20 06:51:59;;;;;;;11.70;8.38;;;23.70;60.60;;;;;;5069858;28;20043;-64
2023/06/20 06:54:25;;;;;;;11.98;7.82;;;23.70;60.60;;;;;;5072141;28;20048;-65
2023/06/20 06:56:52;;;;;;;11.95;8.32;;;23.70;60.60;;;;;;5072219;28;20504;-64
2023/06/20 06:59:17;;;;;;;10.10;8.02;;;23.70;60.70;;;;;;5071365;28;20119;-64
2023/06/20 07:01:43;;;;;;;12.00;8.05;;;23.70;60.80;;;;;;5065403;28;20135;-64
2023/06/20 07:04:08;;;;;;;14.10;8.90;;;23.70;60.80;;;;;;5055174;28;20037;-64
2023/06/20 07:06:34;;;;;;;12.07;9.32;;;23.70;60.90;;;;;;5067120;28;20493;-64
2023/06/20 07:09:00;;;;;;;14.45;9.70;;;23.80;61.00;;;;;;5054613;28;20123;-66
2023/06/20 07:11:26;;;;;;;11.10;7.45;;;23.70;61.10;;;;;;5056009;28;20052;-62
2023/06/20 07:13:51;;;;;;;10.80;8.63;;;23.70;61.20;;;;;;5070529;28;20044;-65
2023/06/20 07:16:17;;;;;;;11.05;8.70;;;23.80;61.30;;;;;;5055670;28;20045;-64
2023/06/20 07:18:43;;;;;;;11.75;8.70;;;23.70;61.30;;;;;;5056023;28;20123;-71
2023/06/20 07:21:08;;;;;;;13.82;9.55;;;23.80;61.50;;;;;;5054481;28;20052;-65
2023/06/20 07:23:34;;;;;;;11.88;9.35;;;23.80;61.60;;;;;;5055363;28;20048;-65
2023/06/20 07:26:00;;;;;;;13.60;9.15;;;23.70;61.60;;;;;;5054086;28;20045;-64
2023/06/20 07:28:26;;;;;;;14.82;9.93;;;23.80;61.70;;;;;;5055356;28;20057;-64
2023/06/20 07:30:52;;;;;;;13.88;8.73;;;23.80;61.70;;;;;;5057998;28;20052;-63
2023/06/20 07:33:18;;;;;;;11.75;8.82;;;23.70;61.70;;;;;;5083662;28;20044;-62
2023/06/20 07:35:44;;;;;;;12.27;8.68;;;23.70;61.70;;;;;;5074463;28;20099;-63
2023/06/20 07:38:10;;;;;;;11.95;9.25;;;23.80;61.90;;;;;;5074378;28;20135;-63
2023/06/20 07:40:36;;;;;;;15.30;9.45;;;23.80;61.90;;;;;;5073793;28;20140;-63
2023/06/20 07:43:01;;;;;;;11.52;8.93;;;23.80;62.00;;;;;;5074329;28;20094;-63
2023/06/20 07:45:27;;;;;;;14.02;8.93;;;23.80;62.10;;;;;;5075147;28;20048;-63
2023/06/20 07:47:53;;;;;;;11.70;7.72;;;23.80;62.10;;;;;;5074190;28;20071;-63
2023/06/20 07:50:18;;;;;;;15.07;8.80;;;23.80;62.10;;;;;;5073133;28;20056;-63
2023/06/20 07:52:44;;;;;;;12.20;8.40;;;23.90;62.40;;;;;;5066474;28;20040;-63
2023/06/20 07:55:10;;;;;;;11.15;8.70;;;23.90;62.40;;;;;;5053469;28;20057;-63
2023/06/20 07:57:35;;;;;;;13.73;8.60;;;23.90;63.20;;;;;;5063413;28;20128;-63
2023/06/20 08:00:01;;;;;;;12.80;8.10;;;24.00;63.40;;;;;;5071991;28;20079;-63
2023/06/20 08:02:28;;;;;;;11.38;7.72;;;23.90;62.80;;;;;;5072221;28;20043;-63
2023/06/20 08:04:54;;;;;;;14.67;8.73;;;24.00;62.70;;;;;;5074078;28;20551;-63
2023/06/20 08:07:19;;;;;;;13.63;8.27;;;24.00;62.70;;;;;;5074107;28;20111;-63
2023/06/20 08:09:45;;;;;;;13.13;8.70;;;24.00;62.80;;;;;;5073655;28;20699;-64
2023/06/20 08:12:11;;;;;;;12.40;8.45;;;24.00;62.80;;;;;;5073615;28;20075;-63
2023/06/20 08:14:37;;;;;;;10.80;8.00;;;24.00;62.70;;;;;;5074514;28;20055;-64
2023/06/20 08:17:03;;;;;;;15.48;9.18;;;24.00;62.70;;;;;;5073660;28;20045;-64
2023/06/20 08:19:28;;;;;;;12.30;8.85;;;24.00;62.60;;;;;;5073035;28;20047;-64
2023/06/20 08:21:54;;;;;;;15.60;9.68;;;24.00;63.20;;;;;;5074509;28;20071;-63
2023/06/20 08:24:19;;;;;;;13.18;9.05;;;24.00;62.70;;;;;;5073678;28;20040;-64
2023/06/20 08:26:45;;;;;;;13.07;9.35;;;24.00;62.80;;;;;;5074302;28;20036;-66
2023/06/20 08:29:11;;;;;;;13.20;8.85;;;24.00;63.00;;;;;;5073398;28;20074;-66
2023/06/20 08:31:36;;;;;;;10.07;8.13;;;23.90;63.00;;;;;;5074530;28;20045;-67
2023/06/20 08:34:05;;;;;;;13.15;9.15;;;23.90;63.00;;;;;;5066553;28;20045;-67
2023/06/20 08:36:32;;;;;;;12.70;8.65;;;23.90;63.10;;;;;;5072873;28;20041;-67
2023/06/20 08:38:59;;;;;;;13.82;9.13;;;23.90;63.10;;;;;;5072930;28;20040;-67
2023/06/20 08:41:25;;;;;;;12.60;8.73;;;23.90;63.20;;;;;;5073953;28;20036;-67
2023/06/20 08:43:50;;;;;;;11.98;8.38;;;23.90;63.10;;;;;;5072431;28;20051;-67
2023/06/20 08:46:16;;;;;;;15.85;8.73;;;23.90;63.20;;;;;;5073674;28;20475;-67
2023/06/20 08:48:42;;;;;;;13.32;9.43;;;23.90;63.20;;;;;;5072253;28;20496;-67
2023/06/20 08:51:08;;;;;;;11.85;8.90;;;23.90;63.30;;;;;;5072446;28;20129;-67
2023/06/20 08:53:34;;;;;;;12.05;9.82;;;23.90;63.40;;;;;;5073393;28;20481;-67
2023/06/20 08:55:59;;;;;;;13.70;8.48;;;23.90;63.50;;;;;;5056848;28;20032;-67
2023/06/20 08:58:25;;;;;;;9.43;7.95;;;23.90;63.50;;;;;;5091380;28;20068;-67
2023/06/20 09:00:50;;;;;;;10.57;8.50;;;23.90;63.50;;;;;;5073213;28;20067;-67
2023/06/20 09:03:16;;;;;;;10.85;8.05;;;23.90;63.60;;;;;;5072913;28;20459;-67
2023/06/20 09:05:51;;;;;;;9.73;7.43;;;23.90;63.60;;;;;;5071727;28;20462;-67
2023/06/20 09:08:16;;;;;;;10.32;7.90;;;24.00;64.20;;;;;;5073006;28;20048;-67
2023/06/20 09:10:42;;;;;;;13.20;8.07;;;24.00;63.70;;;;;;5073346;28;20048;-67
2023/06/20 09:13:08;;;;;;;8.73;7.07;;;24.00;63.80;;;;;;5071738;28;20044;-66
2023/06/20 09:15:34;;;;;;;10.85;7.85;;;24.10;63.80;;;;;;5072532;28;20839;-66
2023/06/20 09:18:01;;;;;;;9.93;7.30;;;24.10;63.80;;;;;;5070849;28;20075;-67
2023/06/20 09:20:30;;;;;;;10.80;7.32;;;24.10;63.80;;;;;;5073121;28;20039;-67
2023/06/20 09:22:56;;;;;;;9.20;7.18;;;24.10;63.80;;;;;;5061825;28;20132;-66
2023/06/20 09:25:26;;;;;;;11.10;7.63;;;24.20;63.80;;;;;;5053212;28;20124;-67
2023/06/20 09:27:52;;;;;;;11.82;7.95;;;24.20;63.80;;;;;;5058827;28;20124;-66
2023/06/20 09:30:18;;;;;;;11.63;7.88;;;24.20;63.80;;;;;;5065363;28;20399;-66
2023/06/20 09:32:43;;;;;;;11.32;7.72;;;24.20;63.90;;;;;;5078189;28;20561;-66
2023/06/20 09:35:15;;;;;;;10.55;7.38;;;24.20;63.80;;;;;;5071886;28;20037;-66
2023/06/20 09:37:41;;;;;;;9.13;6.80;;;24.30;64.10;;;;;;5072395;28;20041;-66
2023/06/20 09:40:17;;;;;;;11.07;7.40;;;24.30;64.00;;;;;;5070896;28;20036;-67
2023/06/20 09:42:43;;;;;;;9.00;7.20;;;24.40;64.10;;;;;;5071749;28;20467;-66
2023/06/20 09:45:10;;;;;;;8.80;7.20;;;24.40;64.00;;;;;;5070124;28;20089;-67
2023/06/20 09:47:36;;;;;;;10.55;7.45;;;24.40;63.90;;;;;;5071641;28;20044;-67
2023/06/20 09:50:19;;;;;;;11.23;7.53;;;24.50;64.00;;;;;;5071743;28;20032;-67
2023/06/20 09:53:09;;;;;;;10.88;6.85;;;24.50;63.70;;;;;;5070282;28;20040;-67
2023/06/20 09:55:35;;;;;;;10.48;6.43;;;24.50;63.60;;;;;;5069462;28;20048;-66
2023/06/20 09:58:04;;;;;;;10.63;6.70;;;24.50;63.50;;;;;;5071769;28;20094;-67
2023/06/20 10:00:30;;;;;;;9.00;5.90;;;24.50;63.30;;;;;;5071872;28;20131;-66
2023/06/20 10:02:58;;;;;;;8.10;6.40;;;24.50;63.90;;;;;;5071276;28;20121;-66
2023/06/20 10:05:24;;;;;;;8.23;6.50;;;24.50;63.30;;;;;;5071961;28;20029;-67
2023/06/20 10:07:51;;;;;;;7.38;6.20;;;24.60;63.20;;;;;;5070169;28;20480;-67
2023/06/20 10:10:17;;;;;;;8.43;6.30;;;24.60;63.20;;;;;;5071601;28;20106;-69
2023/06/20 10:12:44;;;;;;;6.97;6.20;;;24.60;63.20;;;;;;5072398;28;20040;-63
2023/06/20 10:15:10;;;;;;;7.72;6.10;;;24.60;63.10;;;;;;5073599;28;20036;-63
2023/06/20 10:17:40;;;;;;;8.60;6.32;;;24.60;63.00;;;;;;5072269;28;20097;-62
2023/06/20 10:20:09;;;;;;;9.35;6.65;;;24.70;63.00;;;;;;5070617;28;20522;-63
2023/06/20 10:22:38;;;;;;;8.18;6.30;;;24.70;63.10;;;;;;5071143;28;20391;-63
2023/06/20 10:25:11;;;;;;;8.15;6.18;;;24.70;63.10;;;;;;5071950;28;20051;-63
2023/06/20 10:27:41;;;;;;;9.35;6.10;;;24.70;63.20;;;;;;5074982;28;20044;-63
2023/06/20 10:30:08;;;;;;;8.90;6.38;;;24.70;63.20;;;;;;5081297;28;20500;-62
2023/06/20 10:32:34;;;;;;;8.20;6.13;;;24.70;63.10;;;;;;5071918;28;20457;-62
2023/06/20 10:35:09;;;;;;;9.05;6.18;;;24.70;63.10;;;;;;5070508;28;20044;-63
2023/06/20 10:37:38;;;;;;;8.43;6.28;;;24.80;63.10;;;;;;5071187;28;20097;-62
2023/06/20 10:40:09;;;;;;;8.05;6.07;;;24.80;63.20;;;;;;5071514;28;20047;-63
2023/06/20 10:42:38;;;;;;;10.57;6.05;;;24.80;63.20;;;;;;5074370;28;20048;-62
2023/06/20 10:45:19;;;;;;;8.52;6.25;;;24.80;63.30;;;;;;5074811;28;20059;-62
2023/06/20 10:47:46;;;;;;;9.25;6.28;;;24.80;63.40;;;;;;5076070;28;20044;-62
2023/06/20 10:50:12;;;;;;;7.68;5.63;;;24.80;63.40;;;;;;5074725;28;20491;-63
2023/06/20 10:52:38;;;;;;;9.25;6.00;;;24.80;63.30;;;;;;5074564;28;20496;-62
2023/06/20 10:55:16;;;;;;;7.13;5.65;;;24.80;63.30;;;;;;5074732;28;20082;-63
2023/06/20 10:57:46;;;;;;;7.70;6.20;;;24.80;63.30;;;;;;5073645;28;20098;-63
2023/06/20 11:00:18;;;;;;;10.45;6.15;;;24.80;63.30;;;;;;5075233;28;20082;-62
2023/06/20 11:02:45;;;;;;;8.23;5.75;;;24.80;63.30;;;;;;5074809;28;20055;-63
2023/06/20 11:05:10;;;;;;;8.60;6.20;;;24.80;63.30;;;;;;5074582;28;20499;-63
2023/06/20 11:07:59;;;;;;;9.43;5.97;;;24.80;63.30;;;;;;5074037;28;20089;-63
2023/06/20 11:10:29;;;;;;;7.72;5.75;;;24.90;63.40;;;;;;5074851;28;20043;-62
2023/06/20 11:12:56;;;;;;;10.18;6.45;;;24.80;63.40;;;;;;5074267;28;20033;-63
2023/06/20 11:15:28;;;;;;;10.85;6.90;;;24.90;63.40;;;;;;5074527;28;20549;-62
2023/06/20 11:17:55;;;;;;;12.02;7.57;;;24.80;63.40;;;;;;5074535;28;20041;-63
2023/06/20 11:20:21;;;;;;;13.98;7.40;;;24.90;63.40;;;;;;5073784;28;20043;-63
2023/06/20 11:22:47;;;;;;;15.05;7.40;;;24.90;63.50;;;;;;5074766;28;20048;-63
2023/06/20 11:25:23;;;;;;;11.38;7.18;;;24.90;63.40;;;;;;5073747;28;20044;-62
2023/06/20 11:27:49;;;;;;;14.25;8.00;;;24.90;63.50;;;;;;5069325;28;20033;-62
2023/06/20 11:30:14;;;;;;;14.73;7.40;;;24.90;63.50;;;;;;5073494;28;20070;-61
2023/06/20 11:32:40;;;;;;;12.85;7.50;;;24.90;63.60;;;;;;5073040;28;20484;-61
2023/06/20 11:35:08;;;;;;;13.65;7.28;;;24.90;63.60;;;;;;5074299;28;20554;-61
2023/06/20 11:37:34;;;;;;;14.80;7.93;;;24.90;63.60;;;;;;5074804;28;20067;-61
2023/06/20 11:39:59;;;;;;;13.00;7.20;;;24.90;63.60;;;;;;5071999;28;20071;-62
2023/06/20 11:42:25;;;;;;;12.88;7.75;;;24.90;63.60;;;;;;5074500;28;20080;-61
2023/06/20 11:44:50;;;;;;;15.82;8.52;;;24.90;63.60;;;;;;5073034;28;20036;-61
2023/06/20 11:47:16;;;;;;;12.65;7.63;;;24.90;63.70;;;;;;5072147;28;20047;-62
2023/06/20 11:49:42;;;;;;;13.18;7.43;;;24.90;63.70;;;;;;5071872;28;20040;-63
2023/06/20 11:52:08;;;;;;;14.48;7.32;;;24.90;63.70;;;;;;5073981;28;20447;-62
2023/06/20 11:54:50;;;;;;;14.25;7.45;;;24.90;63.70;;;;;;5072959;28;20072;-62
2023/06/20 11:57:29;;;;;;;14.38;7.55;;;25.00;63.70;;;;;;5072931;28;20036;-62
2023/06/20 11:59:55;;;;;;;13.90;7.15;;;25.00;63.80;;;;;;5073417;28;20033;-62
2023/06/20 12:02:21;;;;;;;11.05;7.53;;;25.00;63.80;;;;;;5072998;28;20468;-62
2023/06/20 12:04:58;;;;;;;11.93;6.53;;;25.00;63.80;;;;;;5072940;28;20532;-61
2023/06/20 12:07:25;;;;;;;12.00;6.97;;;25.00;63.80;;;;;;5071152;28;20037;-62
2023/06/20 12:09:51;;;;;;;11.15;6.47;;;25.00;63.80;;;;;;5072448;28;20047;-60
2023/06/20 12:12:16;;;;;;;10.95;7.15;;;25.00;63.70;;;;;;5071968;28;20048;-66
2023/06/20 12:14:44;;;;;;;13.25;7.03;;;25.00;63.80;;;;;;5073175;28;20377;-64
2023/06/20 12:17:10;;;;;;;11.73;6.57;;;25.00;63.70;;;;;;5073788;28;20117;-64
2023/06/20 12:19:35;;;;;;;12.18;6.80;;;25.00;63.60;;;;;;5073726;28;20495;-63
2023/06/20 12:22:01;;;;;;;13.13;7.43;;;25.10;63.60;;;;;;5070614;28;20428;-64
2023/06/20 12:24:27;;;;;;;13.27;6.57;;;25.10;63.60;;;;;;5073946;28;20439;-63
2023/06/20 12:26:53;;;;;;;12.07;6.43;;;25.00;63.50;;;;;;5072229;28;20136;-64
2023/06/20 12:29:19;;;;;;;10.00;6.10;;;25.00;63.40;;;;;;5072315;28;20408;-63
2023/06/20 12:31:45;;;;;;;10.50;6.32;;;25.00;63.50;;;;;;5073645;28;20048;-63
2023/06/20 12:34:10;;;;;;;13.32;7.03;;;25.00;63.40;;;;;;5072395;28;20062;-64
2023/06/20 12:36:36;;;;;;;11.40;6.63;;;25.00;63.40;;;;;;5073209;28;20554;-64
2023/06/20 12:39:01;;;;;;;9.82;5.85;;;25.00;63.40;;;;;;5072377;28;20075;-64
2023/06/20 12:41:34;;;;;;;8.82;5.95;;;25.00;63.40;;;;;;5073747;28;20038;-64
2023/06/20 12:44:00;;;;;;;11.07;6.90;;;25.00;63.30;;;;;;5072727;28;20480;-64